Time;durP1;ratioP1;P1;durP2;ratioP2;P2;SDS_P1;SDS_P2;PMS_P1;PMS_P2;Temp;Humidity;BMP_temperature;BMP_pressure;BME280_temperature;BME280_humidity;BME280_pressure;Samples;Min_cycle;Max_cycle;Signal;HPM_P1;HPM_P2
2023/05/08 00:01:44;;;;;;;17.58;16.17;;;;;;;13.81;100.00;101876.13;4988374;28;20037;-65
2023/05/08 00:04:10;;;;;;;17.30;15.80;;;;;;;13.79;100.00;101872.56;4988130;28;20026;-65
2023/05/08 00:06:35;;;;;;;16.42;15.13;;;;;;;13.78;100.00;101870.81;4988155;28;20041;-65
2023/05/08 00:09:00;;;;;;;16.70;15.05;;;;;;;13.78;100.00;101876.03;4987718;28;20023;-65
2023/05/08 00:11:26;;;;;;;17.33;15.82;;;;;;;13.76;100.00;101877.69;4987472;28;20915;-65
2023/05/08 00:13:51;;;;;;;17.20;15.90;;;;;;;13.75;100.00;101876.78;4987234;28;20426;-65
2023/05/08 00:16:16;;;;;;;17.70;16.20;;;;;;;13.75;100.00;101878.50;4987733;28;20058;-65
2023/05/08 00:18:42;;;;;;;15.68;14.32;;;;;;;13.77;100.00;101877.72;4986806;28;20113;-65
2023/05/08 00:21:07;;;;;;;16.60;15.20;;;;;;;13.77;100.00;101874.22;4987485;28;20105;-65
2023/05/08 00:23:32;;;;;;;17.08;15.68;;;;;;;13.77;100.00;101869.03;4987801;28;20122;-65
2023/05/08 00:25:58;;;;;;;17.25;15.75;;;;;;;13.77;100.00;101867.31;4987890;28;20038;-65
2023/05/08 00:28:23;;;;;;;16.02;14.70;;;;;;;13.77;100.00;101863.81;4985798;28;20069;-65
2023/05/08 00:30:49;;;;;;;16.17;14.77;;;;;;;13.76;100.00;101862.06;4976153;28;20026;-65
2023/05/08 00:33:14;;;;;;;15.85;14.45;;;;;;;13.75;100.00;101865.47;4986746;28;20033;-65
2023/05/08 00:35:41;;;;;;;17.02;15.68;;;;;;;13.75;100.00;101881.09;4976304;28;20026;-65
2023/05/08 00:38:07;;;;;;;17.13;15.50;;;;;;;13.75;100.00;101881.09;4987414;28;20150;-65
2023/05/08 00:40:32;;;;;;;17.02;15.52;;;;;;;13.73;100.00;101877.53;4988121;28;20547;-65
2023/05/08 00:42:58;;;;;;;18.33;16.67;;;;;;;13.70;100.00;101873.13;4969716;28;20387;-65
2023/05/08 00:45:23;;;;;;;18.17;16.58;;;;;;;13.68;100.00;101866.97;4987426;28;20113;-65
2023/05/08 00:47:49;;;;;;;17.35;15.95;;;;;;;13.66;100.00;101866.94;4974188;28;20030;-65
2023/05/08 00:50:16;;;;;;;18.23;16.70;;;;;;;13.63;100.00;101866.81;4962866;28;20039;-65
2023/05/08 00:52:41;;;;;;;18.83;17.27;;;;;;;13.62;100.00;101865.03;4969736;28;20038;-65
2023/05/08 00:55:07;;;;;;;18.33;16.77;;;;;;;13.62;100.00;101870.25;4988162;28;20085;-65
2023/05/08 00:57:36;;;;;;;17.48;16.17;;;;;;;13.62;100.00;101865.03;4987341;28;20061;-65
2023/05/08 01:00:04;;;;;;;18.55;17.05;;;;;;;13.62;100.00;101866.75;4987931;28;20041;-65
2023/05/08 01:02:30;;;;;;;19.02;17.25;;;;;;;13.59;100.00;101859.72;4987540;28;20393;-65
2023/05/08 01:04:55;;;;;;;19.27;17.52;;;;;;;13.59;100.00;101861.44;4987443;28;20038;-65
2023/05/08 01:07:21;;;;;;;18.55;17.05;;;;;;;13.57;100.00;101864.00;4969907;28;20029;-65
2023/05/08 01:09:47;;;;;;;18.50;17.00;;;;;;;13.55;100.00;101863.03;4987471;28;20089;-65
2023/05/08 01:12:48;;;;;;;19.15;17.33;;;;;;;13.53;100.00;101860.38;4986677;28;20037;-65
2023/05/08 01:15:17;;;;;;;18.40;16.88;;;;;;;13.52;100.00;101863.84;4986783;28;20386;-65
2023/05/08 01:18:03;;;;;;;19.50;17.80;;;;;;;13.53;100.00;101867.31;4987356;28;20026;-65
2023/05/08 01:20:38;;;;;;;19.17;17.55;;;;;;;13.53;100.00;101859.50;4987525;28;20089;-65
2023/05/08 01:23:41;;;;;;;19.58;17.75;;;;;;;13.52;100.00;101861.22;4987640;28;20054;-64
2023/05/08 01:26:48;;;;;;;19.52;17.70;;;;;;;13.48;100.00;101856.69;4987711;28;20394;-65
2023/05/08 01:29:22;;;;;;;19.40;17.75;;;;;;;13.50;100.00;101854.16;4965159;28;20045;-65
2023/05/08 01:31:59;;;;;;;20.10;18.30;;;;;;;13.48;100.00;101855.81;4984416;28;20031;-65
2023/05/08 01:34:32;;;;;;;19.17;17.58;;;;;;;13.48;100.00;101855.81;4968142;28;20019;-65
2023/05/08 01:37:03;;;;;;;19.80;18.00;;;;;;;13.47;100.00;101854.94;4968173;28;20364;-65
2023/05/08 01:39:47;;;;;;;19.42;17.83;;;;;;;13.45;100.00;101852.25;4971102;28;20081;-65
2023/05/08 01:42:22;;;;;;;19.17;17.58;;;;;;;13.47;100.00;101854.94;4971462;28;20426;-65
2023/05/08 01:44:53;;;;;;;20.45;18.65;;;;;;;13.45;100.00;101854.84;4971992;28;20039;-65
2023/05/08 01:47:23;;;;;;;19.98;18.38;;;;;;;13.47;100.00;101854.03;4971984;28;20030;-65
2023/05/08 01:50:06;;;;;;;19.15;17.65;;;;;;;13.47;100.00;101854.94;4972919;28;20019;-65
2023/05/08 01:52:36;;;;;;;20.27;18.58;;;;;;;13.48;100.00;101861.91;4972433;28;20030;-65
2023/05/08 01:55:08;;;;;;;20.05;18.00;;;;;;;13.46;100.00;101858.34;4972506;28;20479;-65
2023/05/08 01:57:38;;;;;;;20.98;19.02;;;;;;;13.45;100.00;101857.47;4984887;28;20355;-65
2023/05/08 02:00:05;;;;;;;19.95;18.33;;;;;;;13.44;100.00;101863.50;4972769;28;20038;-65
2023/05/08 02:02:33;;;;;;;20.38;18.77;;;;;;;13.43;100.00;101872.16;4975666;28;20057;-65
2023/05/08 02:05:01;;;;;;;21.52;19.73;;;;;;;13.42;100.00;101872.13;4990582;28;20217;-65
2023/05/08 02:07:27;;;;;;;19.83;18.10;;;;;;;13.41;100.00;101871.22;4975603;28;20429;-65
2023/05/08 02:09:54;;;;;;;20.50;18.80;;;;;;;13.40;100.00;101866.81;4954928;28;20097;-65
2023/05/08 02:12:21;;;;;;;20.77;19.08;;;;;;;13.40;100.00;101877.22;4984398;28;20022;-65
2023/05/08 02:14:48;;;;;;;21.25;19.40;;;;;;;13.40;100.00;101885.03;4971771;28;20491;-65
2023/05/08 02:17:16;;;;;;;19.88;18.17;;;;;;;13.41;100.00;101885.94;4972254;28;20121;-65
2023/05/08 02:19:43;;;;;;;20.67;18.92;;;;;;;13.39;100.00;101878.06;4971528;28;20022;-65
2023/05/08 02:22:09;;;;;;;21.05;18.98;;;;;;;13.39;100.00;101883.28;4973770;28;20026;-65
2023/05/08 02:24:35;;;;;;;20.92;19.10;;;;;;;13.39;100.00;101883.28;4970897;28;20026;-65
2023/05/08 02:27:01;;;;;;;20.17;18.48;;;;;;;13.39;100.00;101883.28;4971061;28;20467;-65
2023/05/08 02:29:29;;;;;;;22.55;20.63;;;;;;;13.39;100.00;101882.38;4970762;28;20089;-65
2023/05/08 02:31:55;;;;;;;21.42;19.42;;;;;;;13.40;100.00;101885.03;4971346;28;20027;-65
2023/05/08 02:34:22;;;;;;;20.98;19.17;;;;;;;13.40;100.00;101868.56;4970923;28;20377;-65
2023/05/08 02:36:52;;;;;;;23.48;21.48;;;;;;;13.39;100.00;101875.47;4971295;28;20074;-65
2023/05/08 02:39:20;;;;;;;22.93;20.73;;;;;;;13.40;100.00;101874.63;4971781;28;20031;-65
2023/05/08 02:41:46;;;;;;;24.10;21.90;;;;;;;13.40;100.00;101869.44;4988820;28;20557;-65
2023/05/08 02:44:11;;;;;;;23.45;21.42;;;;;;;13.39;100.00;101871.97;4990578;28;20054;-65
2023/05/08 02:46:56;;;;;;;25.13;22.90;;;;;;;13.37;100.00;101879.72;4984456;28;20022;-65
2023/05/08 02:49:31;;;;;;;25.65;23.42;;;;;;;13.38;100.00;101875.41;4970709;28;20022;-65
2023/05/08 02:52:09;;;;;;;25.98;23.58;;;;;;;13.39;100.00;101877.19;4971422;28;20523;-65
2023/05/08 02:54:42;;;;;;;26.00;23.60;;;;;;;13.38;100.00;101876.31;4971623;28;20015;-65
2023/05/08 02:57:25;;;;;;;27.25;24.80;;;;;;;13.37;100.00;101869.31;4971026;28;20023;-65
2023/05/08 02:59:58;;;;;;;26.23;23.90;;;;;;;13.36;100.00;101875.38;4970885;28;20089;-65
2023/05/08 03:02:26;;;;;;;25.27;23.00;;;;;;;13.35;100.00;101868.38;4973317;28;20034;-65
2023/05/08 03:05:01;;;;;;;26.08;23.58;;;;;;;13.33;100.00;101867.41;4981035;28;20464;-65
2023/05/08 03:07:29;;;;;;;26.13;23.88;;;;;;;13.33;100.00;101872.63;4971988;28;20494;-65
2023/05/08 03:10:00;;;;;;;27.17;24.73;;;;;;;13.31;100.00;101869.97;4971049;28;20054;-65
2023/05/08 03:12:27;;;;;;;28.30;25.70;;;;;;;13.32;100.00;101865.66;4988806;28;20021;-65
2023/05/08 03:15:03;;;;;;;26.60;24.35;;;;;;;13.30;100.00;101862.13;4978390;28;20129;-65
2023/05/08 03:17:31;;;;;;;27.08;24.48;;;;;;;13.29;100.00;101869.03;4971664;28;20030;-65
2023/05/08 03:20:01;;;;;;;25.48;23.17;;;;;;;13.29;100.00;101868.16;4972389;28;20105;-65
2023/05/08 03:22:29;;;;;;;26.80;24.38;;;;;;;13.28;100.00;101871.56;4971592;28;20023;-65
2023/05/08 03:24:55;;;;;;;28.48;25.88;;;;;;;13.28;100.00;101874.19;4970605;28;20031;-65
2023/05/08 03:27:21;;;;;;;28.75;26.00;;;;;;;13.27;100.00;101875.03;4983679;28;20437;-65
2023/05/08 03:29:49;;;;;;;27.70;25.23;;;;;;;13.23;100.00;101868.81;4982097;28;20113;-65
2023/05/08 03:32:16;;;;;;;27.83;25.33;;;;;;;13.24;100.00;101873.19;4989409;28;20035;-65
2023/05/08 03:34:41;;;;;;;27.98;25.50;;;;;;;13.24;100.00;101873.19;4989535;28;20491;-65
2023/05/08 03:37:07;;;;;;;29.02;26.02;;;;;;;13.24;100.00;101869.72;4976461;28;20023;-65
2023/05/08 03:39:32;;;;;;;28.63;26.02;;;;;;;13.24;100.00;101877.50;4988560;28;20030;-65
2023/05/08 03:41:58;;;;;;;28.55;25.80;;;;;;;13.22;100.00;101869.66;4989237;28;20064;-64
2023/05/08 03:44:24;;;;;;;29.02;26.25;;;;;;;13.19;100.00;101865.22;4988139;28;20042;-65
2023/05/08 03:46:54;;;;;;;28.17;25.52;;;;;;;13.17;100.00;101860.75;4982468;28;20033;-65
2023/05/08 03:49:22;;;;;;;29.83;27.13;;;;;;;13.13;100.00;101859.75;4982852;28;20042;-65
2023/05/08 03:51:47;;;;;;;28.55;25.95;;;;;;;13.11;100.00;101856.25;4969203;28;20345;-65
2023/05/08 03:54:13;;;;;;;27.23;24.73;;;;;;;13.11;100.00;101855.34;4981792;28;20076;-65
2023/05/08 03:56:38;;;;;;;26.90;24.52;;;;;;;13.10;100.00;101864.84;4967655;28;20023;-65
2023/05/08 03:59:13;;;;;;;27.63;25.10;;;;;;;13.08;100.00;101866.50;4981734;28;20516;-65
2023/05/08 04:01:50;;;;;;;26.58;24.25;;;;;;;13.05;100.00;101871.59;4967632;28;20067;-65
2023/05/08 04:04:32;;;;;;;28.40;25.75;;;;;;;13.00;100.00;101867.94;4968306;28;20062;-64
2023/05/08 04:07:03;;;;;;;;;;;;;;;12.97;100.00;101869.59;4969410;28;20054;-64
2023/05/08 04:09:42;;;;;;;27.58;24.98;;;;;;;12.94;100.00;101861.69;4982075;28;19910;-64
2023/05/08 04:12:14;;;;;;;26.95;24.42;;;;;;;12.91;100.00;101869.38;4970422;28;20085;-64
2023/05/08 04:14:44;;;;;;;26.10;23.60;;;;;;;12.87;100.00;101867.47;4979998;28;20130;-64
2023/05/08 04:17:13;;;;;;;25.95;23.52;;;;;;;12.85;100.00;101866.50;4973010;28;20369;-64
2023/05/08 04:19:45;;;;;;;25.48;23.27;;;;;;;12.83;100.00;101876.88;4970307;28;20394;-64
2023/05/08 04:22:11;;;;;;;24.27;22.13;;;;;;;12.82;100.00;101864.69;4972184;28;20042;-64
2023/05/08 04:24:43;;;;;;;25.67;23.38;;;;;;;12.82;100.00;101869.00;4978799;28;20477;-64
2023/05/08 04:27:09;;;;;;;25.35;22.88;;;;;;;12.80;100.00;101876.75;4973721;28;20072;-64
2023/05/08 04:29:35;;;;;;;25.90;23.50;;;;;;;12.80;100.00;101878.47;4988514;28;20616;-64
2023/05/08 04:32:04;;;;;;;26.17;23.77;;;;;;;12.79;100.00;101880.16;4988852;28;20033;-64
2023/05/08 04:34:30;;;;;;;23.60;21.50;;;;;;;12.79;100.00;101879.28;5000500;28;20441;-64
2023/05/08 04:36:56;;;;;;;26.30;23.80;;;;;;;12.81;100.00;101888.03;4972732;28;20669;-64
2023/05/08 04:39:21;;;;;;;24.75;22.55;;;;;;;12.81;100.00;101885.41;4969344;28;20030;-64
2023/05/08 04:41:47;;;;;;;24.38;22.10;;;;;;;12.81;100.00;101888.91;4969379;28;20030;-64
2023/05/08 04:44:13;;;;;;;25.90;23.45;;;;;;;12.84;100.00;101890.75;4969379;28;20038;-64
2023/05/08 04:46:38;;;;;;;25.50;23.20;;;;;;;12.83;100.00;101889.88;4969662;28;20026;-64
2023/05/08 04:49:03;;;;;;;25.10;22.80;;;;;;;12.84;100.00;101891.63;4988713;28;20408;-64
2023/05/08 04:51:30;;;;;;;27.17;24.23;;;;;;;12.86;100.00;101889.13;4988006;28;20030;-64
2023/05/08 04:53:55;;;;;;;25.67;23.33;;;;;;;12.89;100.00;101899.63;4988745;28;20046;-64
2023/05/08 04:56:21;;;;;;;26.00;23.70;;;;;;;12.91;100.00;101897.97;4988234;28;20478;-64
2023/05/08 04:58:46;;;;;;;26.02;23.52;;;;;;;12.93;100.00;101893.69;4988193;28;20026;-64
2023/05/08 05:01:11;;;;;;;28.85;26.08;;;;;;;12.97;100.00;101899.91;4975737;28;20393;-64
2023/05/08 05:03:37;;;;;;;29.15;26.45;;;;;;;13.01;100.00;101898.31;4979478;28;20037;-64
2023/05/08 05:06:02;;;;;;;27.65;25.20;;;;;;;13.03;100.00;101907.06;4980219;28;20038;-64
2023/05/08 05:08:27;;;;;;;28.33;25.70;;;;;;;13.06;100.00;101912.44;4980141;28;20247;-65
2023/05/08 05:10:53;;;;;;;30.02;27.23;;;;;;;13.09;100.00;101916.03;4969956;28;20037;-64
2023/05/08 05:13:18;;;;;;;30.02;27.02;;;;;;;13.13;100.00;101911.81;4978897;28;20014;-64
2023/05/08 05:15:44;;;;;;;32.95;29.73;;;;;;;13.16;100.00;101914.53;4984131;28;20405;-65
2023/05/08 05:18:10;;;;;;;31.25;28.27;;;;;;;13.20;100.00;101923.34;4984128;28;20019;-65
2023/05/08 05:20:36;;;;;;;30.42;27.52;;;;;;;13.20;100.00;101919.03;4986697;28;20533;-65
2023/05/08 05:23:01;;;;;;;32.67;29.38;;;;;;;13.25;100.00;101920.91;4991448;28;20044;-65
2023/05/08 05:25:27;;;;;;;30.45;27.48;;;;;;;13.29;100.00;101928.03;4975816;28;20109;-64
2023/05/08 05:27:52;;;;;;;32.38;29.20;;;;;;;13.31;100.00;101934.19;4972427;28;20031;-65
2023/05/08 05:30:18;;;;;;;33.13;30.10;;;;;;;13.36;100.00;101927.44;4975514;28;20442;-65
2023/05/08 05:32:43;;;;;;;35.83;32.38;;;;;;;13.38;100.00;101933.59;4991892;28;20556;-65
2023/05/08 05:35:09;;;;;;;36.40;32.70;;;;;;;13.41;100.00;101938.00;4991849;28;20300;-65
2023/05/08 05:37:34;;;;;;;34.22;30.75;;;;;;;13.42;100.00;101935.47;4981563;28;20030;-64
2023/05/08 05:40:00;;;;;;;37.92;34.42;;;;;;;13.45;100.00;101935.56;4971941;28;20038;-65
2023/05/08 05:42:25;;;;;;;37.97;34.03;;;;;;;13.48;100.00;101944.31;4972420;28;20040;-65
2023/05/08 05:44:51;;;;;;;42.47;38.40;;;;;;;13.50;100.00;101943.56;4972403;28;20103;-65
2023/05/08 05:47:16;;;;;;;46.70;42.08;;;;;;;13.54;100.00;101949.81;4972233;28;20054;-65
2023/05/08 05:49:45;;;;;;;43.95;39.55;;;;;;;13.55;100.00;101943.75;4975105;28;20538;-65
2023/05/08 05:52:11;;;;;;;45.13;40.70;;;;;;;13.58;100.00;101946.50;4992069;28;20363;-65
2023/05/08 05:54:36;;;;;;;44.45;40.15;;;;;;;13.60;100.00;101946.56;4991064;28;20032;-65
2023/05/08 05:57:02;;;;;;;45.72;40.90;;;;;;;13.62;100.00;101948.38;4981037;28;20033;-66
2023/05/08 05:59:27;;;;;;;45.75;40.80;;;;;;;13.66;100.00;101950.28;4971889;28;20105;-65
2023/05/08 06:01:52;;;;;;;47.40;42.60;;;;;;;13.70;100.00;101951.28;4971713;28;20038;-65
2023/05/08 06:04:18;;;;;;;45.22;40.50;;;;;;;13.73;100.00;101945.28;4976319;28;20419;-65
2023/05/08 06:06:43;;;;;;;46.70;41.90;;;;;;;13.78;100.00;101951.56;4991157;28;20034;-65
2023/05/08 06:09:08;;;;;;;46.35;41.75;;;;;;;13.81;100.00;101952.53;4991122;28;20034;-65
2023/05/08 06:11:33;;;;;;;47.83;42.92;;;;;;;13.85;100.00;101950.91;4990954;28;20034;-65
2023/05/08 06:13:59;;;;;;;50.20;45.15;;;;;;;13.90;100.00;101944.19;4989902;28;20162;-65
2023/05/08 06:16:24;;;;;;;50.35;45.25;;;;;;;13.92;100.00;101952.91;4987800;28;20058;-65
2023/05/08 06:18:50;;;;;;;52.38;47.08;;;;;;;13.96;100.00;101951.31;4986653;28;20034;-65
2023/05/08 06:21:15;;;;;;;52.60;47.33;;;;;;;13.97;100.00;101949.59;4980486;28;20027;-64
2023/05/08 06:23:41;;;;;;;52.53;47.33;;;;;;;13.99;100.00;101947.94;4984642;28;20065;-63
2023/05/08 06:26:07;;;;;;;54.80;49.20;;;;;;;14.01;100.00;101947.16;4977997;28;20038;-64
2023/05/08 06:28:32;;;;;;;54.88;49.20;;;;;;;14.04;100.00;101947.28;4986840;28;20494;-64
2023/05/08 06:30:57;;;;;;;55.65;50.10;;;;;;;14.08;100.00;101944.78;4962842;28;20041;-64
2023/05/08 06:33:22;;;;;;;53.75;48.47;;;;;;;14.09;100.00;101944.81;4987487;28;20426;-64
2023/05/08 06:35:48;;;;;;;55.03;49.08;;;;;;;14.11;100.00;101948.38;4977772;28;20030;-64
2023/05/08 06:38:13;;;;;;;54.83;49.35;;;;;;;14.14;100.00;101953.69;4988852;28;20109;-64
2023/05/08 06:40:43;;;;;;;57.30;51.33;;;;;;;14.14;100.00;101958.00;4988421;28;20569;-64
2023/05/08 06:43:08;;;;;;;56.42;50.63;;;;;;;14.16;100.00;101956.34;4988382;28;20080;-64
2023/05/08 06:45:33;;;;;;;58.88;52.92;;;;;;;14.17;100.00;101955.53;4986666;28;20490;-64
2023/05/08 06:47:59;;;;;;;56.75;50.72;;;;;;;14.19;100.00;101960.78;4974200;28;20125;-64
2023/05/08 06:50:24;;;;;;;55.60;49.95;;;;;;;14.21;100.00;101953.91;4988755;28;20103;-64
2023/05/08 06:52:50;;;;;;;56.88;50.80;;;;;;;14.24;100.00;101964.44;4985777;28;20498;-64
2023/05/08 06:55:15;;;;;;;57.65;51.83;;;;;;;14.27;100.00;101967.16;4969527;28;20053;-64
2023/05/08 06:57:40;;;;;;;57.67;51.78;;;;;;;14.32;100.00;101967.31;4985773;28;20071;-64
2023/05/08 07:00:06;;;;;;;55.92;50.38;;;;;;;14.33;100.00;101976.91;4990157;28;20120;-64
2023/05/08 07:02:32;;;;;;;57.40;51.55;;;;;;;14.35;100.00;101973.53;4985409;28;20470;-64
2023/05/08 07:04:57;;;;;;;55.53;49.90;;;;;;;14.35;100.00;101968.31;4977445;28;20431;-64
2023/05/08 07:07:22;;;;;;;53.85;48.42;;;;;;;14.36;100.00;101970.06;4987278;28;20185;-64
2023/05/08 07:09:48;;;;;;;54.40;48.88;;;;;;;14.37;100.00;101970.97;4970119;28;20084;-64
2023/05/08 07:12:15;;;;;;;52.47;47.13;;;;;;;14.37;100.00;101979.66;4969976;28;20029;-64
2023/05/08 07:14:40;;;;;;;50.20;45.40;;;;;;;14.38;100.00;101978.84;4987296;28;20589;-64
2023/05/08 07:17:06;;;;;;;51.38;46.10;;;;;;;14.40;100.00;101982.41;4987599;28;20101;-64
2023/05/08 07:19:34;;;;;;;50.90;45.58;;;;;;;14.40;100.00;101974.56;4988882;28;20030;-64
2023/05/08 07:21:59;;;;;;;50.50;45.22;;;;;;;14.41;100.00;101972.81;4987152;28;20022;-64
2023/05/08 07:24:24;;;;;;;50.03;44.67;;;;;;;14.40;100.00;101985.00;4978149;28;20505;-64
2023/05/08 07:26:50;;;;;;;47.72;42.92;;;;;;;14.39;100.00;101974.53;4976471;28;20035;-64
2023/05/08 07:29:15;;;;;;;49.08;43.88;;;;;;;14.40;100.00;101981.50;4988908;28;20113;-64
2023/05/08 07:31:41;;;;;;;50.15;45.28;;;;;;;14.44;100.00;101977.28;4988923;28;20153;-65
2023/05/08 07:34:06;;;;;;;49.90;44.83;;;;;;;14.45;100.00;101979.03;4981704;28;20426;-64
2023/05/08 07:36:31;;;;;;;49.65;44.78;;;;;;;14.48;100.00;101980.03;4970652;28;20022;-65
2023/05/08 07:38:57;;;;;;;50.30;44.90;;;;;;;14.50;100.00;101977.47;4971477;28;20158;-64
2023/05/08 07:41:22;;;;;;;50.42;45.25;;;;;;;14.53;100.00;101977.59;4971983;28;20375;-64
2023/05/08 07:43:47;;;;;;;50.55;45.13;;;;;;;14.55;100.00;101978.53;4977746;28;20383;-64
2023/05/08 07:46:16;;;;;;;49.78;44.45;;;;;;;14.58;100.00;101976.03;4969955;28;20061;-64
2023/05/08 07:48:42;;;;;;;47.88;42.85;;;;;;;14.60;100.00;101965.63;4977926;28;20081;-64
2023/05/08 07:51:10;;;;;;;47.83;42.97;;;;;;;14.63;100.00;101969.25;4986112;28;20034;-64
2023/05/08 07:53:35;;;;;;;49.17;44.10;;;;;;;14.68;100.00;101971.13;4978209;28;20034;-64
2023/05/08 07:56:00;;;;;;;51.47;46.35;;;;;;;14.73;100.00;101964.34;4988026;28;20034;-64
2023/05/08 07:58:26;;;;;;;50.17;44.95;;;;;;;14.80;100.00;101971.53;4988147;28;20049;-64
2023/05/08 08:00:51;;;;;;;49.80;44.70;;;;;;;14.87;100.00;101967.41;4987615;28;20023;-64
2023/05/08 08:03:16;;;;;;;48.72;43.72;;;;;;;14.94;100.00;101968.50;4970768;28;20041;-64
2023/05/08 08:05:42;;;;;;;48.75;43.65;;;;;;;15.03;100.00;101973.09;4987779;28;20033;-64
2023/05/08 08:08:07;;;;;;;49.03;43.95;;;;;;;15.10;100.00;101978.59;4988601;28;20018;-64
2023/05/08 08:10:32;;;;;;;49.40;44.60;;;;;;;15.18;100.00;101972.72;4974596;28;20026;-64
2023/05/08 08:13:00;;;;;;;48.63;43.65;;;;;;;15.25;100.00;101974.69;4988536;28;20033;-64
2023/05/08 08:15:27;;;;;;;48.08;43.22;;;;;;;15.30;100.00;101972.19;4988066;28;20050;-64
2023/05/08 08:17:52;;;;;;;46.85;42.25;;;;;;;15.37;100.00;101974.16;4988374;28;20050;-64
2023/05/08 08:20:18;;;;;;;49.63;44.60;;;;;;;15.45;100.00;101977.00;4971125;28;20057;-64
2023/05/08 08:22:43;;;;;;;46.55;41.60;;;;;;;15.52;100.00;101978.97;4951211;28;20031;-64
2023/05/08 08:25:09;;;;;;;45.15;40.38;;;;;;;15.57;100.00;101972.16;4958514;28;20410;-63
2023/05/08 08:27:34;;;;;;;44.13;39.67;;;;;;;15.63;100.00;101976.66;4975087;28;20467;-64
2023/05/08 08:30:00;;;;;;;43.20;38.85;;;;;;;15.65;100.00;101974.97;4967408;28;20034;-64
2023/05/08 08:32:25;;;;;;;44.22;39.88;;;;;;;15.73;100.00;101976.09;4979408;28;20030;-64
2023/05/08 08:34:50;;;;;;;44.25;39.83;;;;;;;15.84;100.00;101973.78;4970752;28;20089;-63
2023/05/08 08:37:16;;;;;;;45.58;41.03;;;;;;;15.93;100.00;101975.75;4971263;28;20022;-65
2023/05/08 08:39:41;;;;;;;42.40;38.30;;;;;;;16.00;100.00;101965.50;4975087;28;20100;-64
2023/05/08 08:42:07;;;;;;;43.90;39.65;;;;;;;16.05;100.00;101970.00;4980277;28;20025;-64
2023/05/08 08:44:32;;;;;;;43.38;38.92;;;;;;;16.14;100.00;101972.00;4973389;28;20022;-64
2023/05/08 08:46:59;;;;;;;41.95;37.88;;;;;;;16.19;100.00;101967.75;4970461;28;20027;-64
2023/05/08 08:49:30;;;;;;;40.97;37.00;;;;;;;16.30;100.00;101964.53;4978079;28;20426;-64
2023/05/08 08:52:00;;;;;;;40.40;36.38;;;;;;;16.42;100.00;101974.47;4983827;28;20014;-64
2023/05/08 08:54:29;;;;;;;40.92;37.00;;;;;;;16.54;100.00;101968.63;4985390;28;20029;-64
2023/05/08 08:56:55;;;;;;;38.63;34.60;;;;;;;16.67;100.00;101975.06;4982655;28;20092;-64
2023/05/08 08:59:23;;;;;;;38.50;34.80;;;;;;;16.74;100.00;101973.47;4982066;28;20094;-65
2023/05/08 09:02:03;;;;;;;35.70;32.40;;;;;;;16.65;100.00;101976.75;4971367;28;20114;-65
2023/05/08 09:04:30;;;;;;;38.50;34.53;;;;;;;16.58;100.00;101974.84;4959436;28;20025;-64
2023/05/08 09:06:57;;;;;;;37.70;34.00;;;;;;;16.66;100.00;101973.28;4974801;28;20031;-64
2023/05/08 09:09:22;;;;;;;38.85;35.25;;;;;;;16.71;100.00;101976.94;4970799;28;20030;-64
2023/05/08 09:11:47;;;;;;;36.65;33.05;;;;;;;16.76;100.00;101975.31;4983639;28;20073;-64
2023/05/08 09:14:13;;;;;;;36.22;32.92;;;;;;;16.77;100.00;101981.41;4974765;28;20058;-64
2023/05/08 09:16:38;;;;;;;33.75;30.65;;;;;;;16.76;100.00;101979.66;4983004;28;20037;-64
2023/05/08 09:19:04;;;;;;;35.20;31.92;;;;;;;16.79;100.00;101983.22;4983310;28;20400;-64
2023/05/08 09:21:30;;;;;;;36.03;32.45;;;;;;;16.82;100.00;101984.16;4974705;28;20026;-64
2023/05/08 09:24:01;;;;;;;37.00;33.45;;;;;;;16.82;100.00;101986.78;4967715;28;20027;-64
2023/05/08 09:26:32;;;;;;;36.40;32.90;;;;;;;16.82;100.00;101984.16;4967268;28;20515;-64
2023/05/08 09:29:18;;;;;;;34.80;31.55;;;;;;;16.82;100.00;101984.16;4970223;28;20038;-64
2023/05/08 09:31:45;;;;;;;34.45;31.13;;;;;;;16.86;100.00;101978.13;4971381;28;20088;-65
2023/05/08 09:34:23;;;;;;;34.95;31.55;;;;;;;16.89;100.00;101976.47;4962420;28;20184;-64
2023/05/08 09:36:49;;;;;;;33.20;30.17;;;;;;;16.92;100.00;101975.66;4977773;28;20030;-64
2023/05/08 09:39:24;;;;;;;34.00;30.85;;;;;;;16.94;100.00;101973.97;4985818;28;20038;-64
2023/05/08 09:42:01;;;;;;;34.92;31.83;;;;;;;16.97;100.00;101979.28;4977712;28;20022;-65
2023/05/08 09:44:26;;;;;;;35.75;32.30;;;;;;;17.03;100.00;101973.31;4977644;28;20149;-65
2023/05/08 09:47:09;;;;;;;33.22;30.17;;;;;;;17.04;100.00;101981.19;4971969;28;20034;-65
2023/05/08 09:49:34;;;;;;;34.92;31.70;;;;;;;17.04;100.00;101986.41;4969010;28;20110;-65
2023/05/08 09:52:00;;;;;;;36.55;33.17;;;;;;;17.00;100.00;101984.56;4969144;28;20027;-64
2023/05/08 09:54:25;;;;;;;36.15;32.72;;;;;;;16.98;100.00;101985.41;4971772;28;20391;-64
2023/05/08 09:56:50;;;;;;;36.28;32.78;;;;;;;16.95;100.00;101986.19;4979088;28;20019;-64
2023/05/08 09:59:23;;;;;;;38.03;34.70;;;;;;;16.95;100.00;101980.06;4974004;28;20030;-64
2023/05/08 10:01:48;;;;;;;39.78;36.13;;;;;;;16.93;100.00;101982.66;4982102;28;20053;-64
2023/05/08 10:04:14;;;;;;;39.63;35.88;;;;;;;16.91;100.00;101986.97;4979294;28;20034;-64
2023/05/08 10:06:39;;;;;;;40.70;36.78;;;;;;;16.88;100.00;101981.66;4981932;28;20030;-64
2023/05/08 10:09:14;;;;;;;40.42;36.72;;;;;;;16.90;100.00;101985.22;4987841;28;20173;-64
2023/05/08 10:11:41;;;;;;;40.78;37.03;;;;;;;16.85;100.00;101989.44;4984551;28;20145;-65
2023/05/08 10:14:07;;;;;;;40.78;37.03;;;;;;;16.84;100.00;101979.84;4963405;28;20606;-65
2023/05/08 10:16:43;;;;;;;42.08;38.20;;;;;;;16.85;100.00;101985.09;4985708;28;20045;-64
2023/05/08 10:19:13;;;;;;;42.72;38.72;;;;;;;16.86;100.00;101991.22;4982259;28;20106;-64
2023/05/08 10:21:43;;;;;;;42.10;38.08;;;;;;;16.87;100.00;101990.38;4988376;28;20030;-64
2023/05/08 10:24:15;;;;;;;43.55;39.35;;;;;;;16.87;100.00;101993.88;4971114;28;20035;-64
2023/05/08 10:26:53;;;;;;;46.65;41.65;;;;;;;16.87;100.00;101993.88;4984532;28;20113;-64
2023/05/08 10:29:36;;;;;;;46.40;41.72;;;;;;;16.86;100.00;101992.09;4979594;28;20026;-64
2023/05/08 10:32:08;;;;;;;46.97;42.28;;;;;;;16.89;100.00;101996.53;4973303;28;20374;-64
2023/05/08 10:34:34;;;;;;;48.90;43.92;;;;;;;16.90;100.00;101993.06;4970017;28;20023;-64
2023/05/08 10:37:00;;;;;;;47.83;43.00;;;;;;;16.94;100.00;102000.16;4974599;28;20068;-64
2023/05/08 10:39:27;;;;;;;48.45;43.35;;;;;;;16.97;100.00;101997.59;4976061;28;20027;-64
2023/05/08 10:41:52;;;;;;;48.80;43.75;;;;;;;16.98;100.00;101996.72;4969671;28;20137;-64
2023/05/08 10:44:18;;;;;;;50.75;45.33;;;;;;;17.02;100.00;101990.72;4967105;28;20105;-64
2023/05/08 10:47:14;;;;;;;49.70;44.00;;;;;;;17.06;100.00;101994.31;4967278;28;20018;-64
2023/05/08 10:49:55;;;;;;;51.65;46.00;;;;;;;17.09;100.00;101988.28;4983371;28;20026;-64
2023/05/08 10:52:28;;;;;;;48.70;43.72;;;;;;;17.13;100.00;101990.13;4976227;28;20023;-64
2023/05/08 10:54:57;;;;;;;48.08;42.95;;;;;;;17.18;100.00;101983.25;4975534;28;20615;-64
2023/05/08 10:57:23;;;;;;;50.10;44.83;;;;;;;17.26;100.00;101978.19;4974829;28;20034;-64
2023/05/08 10:59:48;;;;;;;50.33;45.10;;;;;;;17.32;100.00;101980.06;4970888;28;20019;-64
2023/05/08 11:02:15;;;;;;;47.67;42.70;;;;;;;17.39;100.00;101979.34;4970843;28;20076;-64
2023/05/08 11:04:40;;;;;;;48.63;43.40;;;;;;;17.41;100.00;101975.03;4970039;28;20121;-64
2023/05/08 11:07:06;;;;;;;47.33;42.53;;;;;;;17.42;100.00;101974.19;4970564;28;20089;-64